sensor_id;sensor_type;location;lat;lon;timestamp;temperature;humidity
4578;DHT22;2301;47.354;8.528;2023-04-06T00:00:38;13.00;53.20
4578;DHT22;2301;47.354;8.528;2023-04-06T00:03:05;12.90;52.60
4578;DHT22;2301;47.354;8.528;2023-04-06T00:05:32;12.90;52.60
4578;DHT22;2301;47.354;8.528;2023-04-06T00:08:00;12.80;52.60
4578;DHT22;2301;47.354;8.528;2023-04-06T00:10:27;12.80;53.90
4578;DHT22;2301;47.354;8.528;2023-04-06T00:12:58;12.80;53.60
4578;DHT22;2301;47.354;8.528;2023-04-06T00:15:26;12.80;53.00
4578;DHT22;2301;47.354;8.528;2023-04-06T00:17:53;12.80;52.60
4578;DHT22;2301;47.354;8.528;2023-04-06T00:20:20;12.80;52.20
4578;DHT22;2301;47.354;8.528;2023-04-06T00:22:47;12.70;51.30
4578;DHT22;2301;47.354;8.528;2023-04-06T00:25:14;12.60;51.60
4578;DHT22;2301;47.354;8.528;2023-04-06T00:27:42;12.60;51.70
4578;DHT22;2301;47.354;8.528;2023-04-06T00:30:11;12.50;51.60
4578;DHT22;2301;47.354;8.528;2023-04-06T00:32:38;12.50;51.70
4578;DHT22;2301;47.354;8.528;2023-04-06T00:35:05;12.50;51.80
4578;DHT22;2301;47.354;8.528;2023-04-06T00:37:33;12.50;52.30
4578;DHT22;2301;47.354;8.528;2023-04-06T00:40:00;12.50;52.40
4578;DHT22;2301;47.354;8.528;2023-04-06T00:42:27;12.50;51.90
4578;DHT22;2301;47.354;8.528;2023-04-06T00:44:57;12.50;51.30
4578;DHT22;2301;47.354;8.528;2023-04-06T00:47:26;12.50;52.40
4578;DHT22;2301;47.354;8.528;2023-04-06T00:49:53;12.50;52.60
4578;DHT22;2301;47.354;8.528;2023-04-06T00:52:21;12.50;52.00
4578;DHT22;2301;47.354;8.528;2023-04-06T00:54:48;12.50;52.00
4578;DHT22;2301;47.354;8.528;2023-04-06T00:57:16;12.50;52.10
4578;DHT22;2301;47.354;8.528;2023-04-06T00:59:43;12.50;52.10
4578;DHT22;2301;47.354;8.528;2023-04-06T01:02:11;12.50;51.70
4578;DHT22;2301;47.354;8.528;2023-04-06T01:04:40;12.50;52.00
4578;DHT22;2301;47.354;8.528;2023-04-06T01:07:07;12.50;51.90
4578;DHT22;2301;47.354;8.528;2023-04-06T01:09:34;12.40;51.60
4578;DHT22;2301;47.354;8.528;2023-04-06T01:12:01;12.40;51.50
4578;DHT22;2301;47.354;8.528;2023-04-06T01:14:29;12.50;51.70
4578;DHT22;2301;47.354;8.528;2023-04-06T01:16:58;12.50;51.60
4578;DHT22;2301;47.354;8.528;2023-04-06T01:19:26;12.40;51.40
4578;DHT22;2301;47.354;8.528;2023-04-06T01:21:54;12.40;51.60
4578;DHT22;2301;47.354;8.528;2023-04-06T01:24:23;12.30;51.90
4578;DHT22;2301;47.354;8.528;2023-04-06T01:26:50;12.30;51.80
4578;DHT22;2301;47.354;8.528;2023-04-06T01:29:17;12.30;52.40
4578;DHT22;2301;47.354;8.528;2023-04-06T01:31:44;12.30;51.60
4578;DHT22;2301;47.354;8.528;2023-04-06T01:34:11;12.30;51.70
4578;DHT22;2301;47.354;8.528;2023-04-06T01:36:38;12.20;51.90
4578;DHT22;2301;47.354;8.528;2023-04-06T01:39:05;12.20;51.50
4578;DHT22;2301;47.354;8.528;2023-04-06T01:41:34;12.20;51.60
4578;DHT22;2301;47.354;8.528;2023-04-06T01:44:01;12.10;51.50
4578;DHT22;2301;47.354;8.528;2023-04-06T01:46:28;12.20;51.90
4578;DHT22;2301;47.354;8.528;2023-04-06T01:48:55;12.20;51.60
4578;DHT22;2301;47.354;8.528;2023-04-06T01:51:22;12.20;51.70
4578;DHT22;2301;47.354;8.528;2023-04-06T01:53:51;12.10;51.40
4578;DHT22;2301;47.354;8.528;2023-04-06T01:56:18;12.20;51.50
4578;DHT22;2301;47.354;8.528;2023-04-06T01:58:47;12.20;51.90
4578;DHT22;2301;47.354;8.528;2023-04-06T02:01:14;12.20;51.50
4578;DHT22;2301;47.354;8.528;2023-04-06T02:03:41;12.20;51.50
4578;DHT22;2301;47.354;8.528;2023-04-06T02:06:08;12.20;52.10
4578;DHT22;2301;47.354;8.528;2023-04-06T02:08:35;12.20;52.00
4578;DHT22;2301;47.354;8.528;2023-04-06T02:11:02;12.20;52.30
4578;DHT22;2301;47.354;8.528;2023-04-06T02:13:29;11.90;48.40
4578;DHT22;2301;47.354;8.528;2023-04-06T02:15:58;11.30;45.30
4578;DHT22;2301;47.354;8.528;2023-04-06T02:18:25;10.70;44.40
4578;DHT22;2301;47.354;8.528;2023-04-06T02:20:54;10.20;44.40
4578;DHT22;2301;47.354;8.528;2023-04-06T02:23:21;9.70;46.00
4578;DHT22;2301;47.354;8.528;2023-04-06T02:25:48;9.30;46.40
4578;DHT22;2301;47.354;8.528;2023-04-06T02:28:16;8.90;46.80
4578;DHT22;2301;47.354;8.528;2023-04-06T02:30:43;8.60;47.20
4578;DHT22;2301;47.354;8.528;2023-04-06T02:33:12;8.30;47.70
4578;DHT22;2301;47.354;8.528;2023-04-06T02:35:39;8.10;48.30
4578;DHT22;2301;47.354;8.528;2023-04-06T02:38:06;7.90;48.70
4578;DHT22;2301;47.354;8.528;2023-04-06T02:40:33;7.70;49.10
4578;DHT22;2301;47.354;8.528;2023-04-06T02:43:01;7.50;49.50
4578;DHT22;2301;47.354;8.528;2023-04-06T02:45:28;7.30;49.90
4578;DHT22;2301;47.354;8.528;2023-04-06T02:47:55;7.10;50.40
4578;DHT22;2301;47.354;8.528;2023-04-06T02:50:26;7.00;50.60
4578;DHT22;2301;47.354;8.528;2023-04-06T02:52:55;6.80;50.80
4578;DHT22;2301;47.354;8.528;2023-04-06T02:55:25;6.70;51.20
4578;DHT22;2301;47.354;8.528;2023-04-06T02:57:53;6.60;51.60
4578;DHT22;2301;47.354;8.528;2023-04-06T03:00:21;6.40;51.80
4578;DHT22;2301;47.354;8.528;2023-04-06T03:02:50;6.40;52.20
4578;DHT22;2301;47.354;8.528;2023-04-06T03:05:18;6.20;52.50
4578;DHT22;2301;47.354;8.528;2023-04-06T03:07:54;6.20;52.90
4578;DHT22;2301;47.354;8.528;2023-04-06T03:13:26;6.00;53.80
4578;DHT22;2301;47.354;8.528;2023-04-06T03:16:05;5.80;53.90
4578;DHT22;2301;47.354;8.528;2023-04-06T03:19:16;5.80;54.10
4578;DHT22;2301;47.354;8.528;2023-04-06T03:22:19;5.70;54.60
4578;DHT22;2301;47.354;8.528;2023-04-06T04:07:12;4.80;56.60
4578;DHT22;2301;47.354;8.528;2023-04-06T04:10:20;4.70;56.70
4578;DHT22;2301;47.354;8.528;2023-04-06T04:17:15;4.60;56.70
4578;DHT22;2301;47.354;8.528;2023-04-06T04:26:23;4.50;57.00
4578;DHT22;2301;47.354;8.528;2023-04-06T04:29:00;4.50;56.90
4578;DHT22;2301;47.354;8.528;2023-04-06T04:32:03;4.50;57.10
4578;DHT22;2301;47.354;8.528;2023-04-06T04:34:59;4.40;57.20
4578;DHT22;2301;47.354;8.528;2023-04-06T04:38:04;4.40;57.30
4578;DHT22;2301;47.354;8.528;2023-04-06T04:40:40;4.40;57.40
4578;DHT22;2301;47.354;8.528;2023-04-06T04:50:29;4.30;57.80
4578;DHT22;2301;47.354;8.528;2023-04-06T05:14:47;4.20;58.40
4578;DHT22;2301;47.354;8.528;2023-04-06T05:17:34;4.20;58.30
4578;DHT22;2301;47.354;8.528;2023-04-06T05:23:33;4.20;58.70
4578;DHT22;2301;47.354;8.528;2023-04-06T05:46:19;4.20;59.20
4578;DHT22;2301;47.354;8.528;2023-04-06T05:48:50;4.20;59.10
4578;DHT22;2301;47.354;8.528;2023-04-06T05:51:20;4.20;59.20
4578;DHT22;2301;47.354;8.528;2023-04-06T05:53:48;4.30;59.20
4578;DHT22;2301;47.354;8.528;2023-04-06T05:56:15;4.30;59.10
4578;DHT22;2301;47.354;8.528;2023-04-06T05:58:42;4.40;59.30
4578;DHT22;2301;47.354;8.528;2023-04-06T06:01:09;4.40;59.30
4578;DHT22;2301;47.354;8.528;2023-04-06T06:03:43;4.40;59.20
4578;DHT22;2301;47.354;8.528;2023-04-06T06:06:38;4.40;59.20
4578;DHT22;2301;47.354;8.528;2023-04-06T06:09:10;4.50;59.20
4578;DHT22;2301;47.354;8.528;2023-04-06T06:11:38;4.50;59.10
4578;DHT22;2301;47.354;8.528;2023-04-06T06:14:06;4.50;58.90
4578;DHT22;2301;47.354;8.528;2023-04-06T06:16:33;4.60;58.90
4578;DHT22;2301;47.354;8.528;2023-04-06T06:19:02;4.70;58.80
4578;DHT22;2301;47.354;8.528;2023-04-06T06:21:29;4.70;58.60
4578;DHT22;2301;47.354;8.528;2023-04-06T06:23:56;4.80;58.60
4578;DHT22;2301;47.354;8.528;2023-04-06T06:26:23;4.80;58.50
4578;DHT22;2301;47.354;8.528;2023-04-06T06:28:52;4.90;58.60
4578;DHT22;2301;47.354;8.528;2023-04-06T06:31:19;4.90;58.70
4578;DHT22;2301;47.354;8.528;2023-04-06T06:33:48;5.00;58.80
4578;DHT22;2301;47.354;8.528;2023-04-06T06:36:21;5.00;58.80
4578;DHT22;2301;47.354;8.528;2023-04-06T06:38:57;5.10;58.80
4578;DHT22;2301;47.354;8.528;2023-04-06T06:41:26;5.90;90.40
4578;DHT22;2301;47.354;8.528;2023-04-06T06:43:53;7.80;96.60
4578;DHT22;2301;47.354;8.528;2023-04-06T06:46:20;9.50;93.20
4578;DHT22;2301;47.354;8.528;2023-04-06T06:48:47;10.90;84.80
4578;DHT22;2301;47.354;8.528;2023-04-06T06:51:14;12.00;74.70
4578;DHT22;2301;47.354;8.528;2023-04-06T06:53:42;13.10;67.00
4578;DHT22;2301;47.354;8.528;2023-04-06T06:56:09;14.20;62.20
4578;DHT22;2301;47.354;8.528;2023-04-06T06:58:36;15.20;58.30
4578;DHT22;2301;47.354;8.528;2023-04-06T07:01:03;16.10;54.40
4578;DHT22;2301;47.354;8.528;2023-04-06T07:03:30;17.00;51.50
4578;DHT22;2301;47.354;8.528;2023-04-06T07:08:24;18.40;46.10
4578;DHT22;2301;47.354;8.528;2023-04-06T07:10:53;19.00;44.70
4578;DHT22;2301;47.354;8.528;2023-04-06T07:13:21;19.40;43.20
4578;DHT22;2301;47.354;8.528;2023-04-06T07:15:49;19.70;42.00
4578;DHT22;2301;47.354;8.528;2023-04-06T07:18:16;20.10;41.10
4578;DHT22;2301;47.354;8.528;2023-04-06T07:20:43;20.50;40.10
4578;DHT22;2301;47.354;8.528;2023-04-06T07:23:10;20.90;39.00
4578;DHT22;2301;47.354;8.528;2023-04-06T07:25:37;21.20;38.30
4578;DHT22;2301;47.354;8.528;2023-04-06T07:28:05;21.50;37.70
4578;DHT22;2301;47.354;8.528;2023-04-06T07:30:32;21.70;37.10
4578;DHT22;2301;47.354;8.528;2023-04-06T07:32:59;21.80;36.70
4578;DHT22;2301;47.354;8.528;2023-04-06T07:35:27;22.00;36.30
4578;DHT22;2301;47.354;8.528;2023-04-06T07:37:55;22.10;35.40
4578;DHT22;2301;47.354;8.528;2023-04-06T07:40:23;22.20;35.10
4578;DHT22;2301;47.354;8.528;2023-04-06T07:42:53;22.40;34.40
4578;DHT22;2301;47.354;8.528;2023-04-06T07:45:22;22.60;35.80
4578;DHT22;2301;47.354;8.528;2023-04-06T07:47:49;22.70;39.60
4578;DHT22;2301;47.354;8.528;2023-04-06T07:50:16;22.70;42.30
4578;DHT22;2301;47.354;8.528;2023-04-06T07:52:43;22.60;39.70
4578;DHT22;2301;47.354;8.528;2023-04-06T07:55:10;22.40;35.70
4578;DHT22;2301;47.354;8.528;2023-04-06T07:57:37;22.20;34.60
4578;DHT22;2301;47.354;8.528;2023-04-06T08:00:05;22.00;33.30
4578;DHT22;2301;47.354;8.528;2023-04-06T08:02:33;21.80;31.90
4578;DHT22;2301;47.354;8.528;2023-04-06T08:05:00;21.60;31.60
4578;DHT22;2301;47.354;8.528;2023-04-06T08:07:27;21.70;31.60
4578;DHT22;2301;47.354;8.528;2023-04-06T08:09:54;21.50;30.20
4578;DHT22;2301;47.354;8.528;2023-04-06T08:12:22;21.10;29.10
4578;DHT22;2301;47.354;8.528;2023-04-06T08:14:49;20.70;29.10
4578;DHT22;2301;47.354;8.528;2023-04-06T08:17:16;20.10;29.00
4578;DHT22;2301;47.354;8.528;2023-04-06T08:19:44;19.80;29.50
4578;DHT22;2301;47.354;8.528;2023-04-06T08:22:11;19.50;29.50
4578;DHT22;2301;47.354;8.528;2023-04-06T08:24:39;19.50;29.70
4578;DHT22;2301;47.354;8.528;2023-04-06T08:27:06;19.40;29.70
4578;DHT22;2301;47.354;8.528;2023-04-06T08:29:33;19.60;39.80
4578;DHT22;2301;47.354;8.528;2023-04-06T08:32:00;20.20;42.20
4578;DHT22;2301;47.354;8.528;2023-04-06T08:34:31;20.60;40.50
4578;DHT22;2301;47.354;8.528;2023-04-06T08:37:00;20.50;33.90
4578;DHT22;2301;47.354;8.528;2023-04-06T08:39:27;20.20;30.80
4578;DHT22;2301;47.354;8.528;2023-04-06T08:41:56;19.90;30.30
4578;DHT22;2301;47.354;8.528;2023-04-06T08:44:25;19.60;30.40
4578;DHT22;2301;47.354;8.528;2023-04-06T08:46:53;19.50;30.70
4578;DHT22;2301;47.354;8.528;2023-04-06T08:49:20;19.50;31.30
4578;DHT22;2301;47.354;8.528;2023-04-06T08:51:49;19.40;30.00
4578;DHT22;2301;47.354;8.528;2023-04-06T08:54:17;19.20;30.50
4578;DHT22;2301;47.354;8.528;2023-04-06T08:56:45;18.80;30.60
4578;DHT22;2301;47.354;8.528;2023-04-06T08:59:13;18.50;30.70
4578;DHT22;2301;47.354;8.528;2023-04-06T09:01:41;18.40;31.00
4578;DHT22;2301;47.354;8.528;2023-04-06T09:04:10;18.40;30.40
4578;DHT22;2301;47.354;8.528;2023-04-06T09:06:38;18.10;30.20
4578;DHT22;2301;47.354;8.528;2023-04-06T09:09:06;18.00;30.90
4578;DHT22;2301;47.354;8.528;2023-04-06T09:11:45;17.90;31.20
4578;DHT22;2301;47.354;8.528;2023-04-06T09:14:13;17.90;30.90
4578;DHT22;2301;47.354;8.528;2023-04-06T09:16:41;18.00;30.80
4578;DHT22;2301;47.354;8.528;2023-04-06T09:19:09;18.30;31.40
4578;DHT22;2301;47.354;8.528;2023-04-06T09:21:37;18.60;31.70
4578;DHT22;2301;47.354;8.528;2023-04-06T09:24:07;18.90;31.80
4578;DHT22;2301;47.354;8.528;2023-04-06T09:26:46;19.10;31.20
4578;DHT22;2301;47.354;8.528;2023-04-06T09:29:22;19.10;29.70
4578;DHT22;2301;47.354;8.528;2023-04-06T09:31:50;19.10;29.50
4578;DHT22;2301;47.354;8.528;2023-04-06T09:34:21;19.20;29.70
4578;DHT22;2301;47.354;8.528;2023-04-06T09:36:49;19.40;30.00
4578;DHT22;2301;47.354;8.528;2023-04-06T09:39:20;19.60;30.00
4578;DHT22;2301;47.354;8.528;2023-04-06T09:41:51;19.60;29.70
4578;DHT22;2301;47.354;8.528;2023-04-06T09:44:19;19.60;29.80
4578;DHT22;2301;47.354;8.528;2023-04-06T09:46:47;19.70;29.70
4578;DHT22;2301;47.354;8.528;2023-04-06T09:49:14;19.80;28.60
4578;DHT22;2301;47.354;8.528;2023-04-06T09:51:46;20.10;28.40
4578;DHT22;2301;47.354;8.528;2023-04-06T09:54:18;20.30;28.40
4578;DHT22;2301;47.354;8.528;2023-04-06T09:56:53;20.60;28.60
4578;DHT22;2301;47.354;8.528;2023-04-06T09:59:29;21.00;45.50
4578;DHT22;2301;47.354;8.528;2023-04-06T10:01:58;21.50;47.90
4578;DHT22;2301;47.354;8.528;2023-04-06T10:04:35;21.90;46.10
4578;DHT22;2301;47.354;8.528;2023-04-06T10:07:05;21.90;32.80
4578;DHT22;2301;47.354;8.528;2023-04-06T10:09:35;21.80;29.60
4578;DHT22;2301;47.354;8.528;2023-04-06T10:12:04;21.70;28.90
4578;DHT22;2301;47.354;8.528;2023-04-06T10:14:34;21.80;28.90
4578;DHT22;2301;47.354;8.528;2023-04-06T10:17:03;22.00;28.00
4578;DHT22;2301;47.354;8.528;2023-04-06T10:19:37;22.00;26.70
4578;DHT22;2301;47.354;8.528;2023-04-06T10:22:08;22.20;26.40
4578;DHT22;2301;47.354;8.528;2023-04-06T10:24:36;22.40;26.20
4578;DHT22;2301;47.354;8.528;2023-04-06T10:27:04;22.50;25.60
4578;DHT22;2301;47.354;8.528;2023-04-06T10:29:50;22.60;25.20
4578;DHT22;2301;47.354;8.528;2023-04-06T10:32:17;22.20;23.60
4578;DHT22;2301;47.354;8.528;2023-04-06T10:34:44;21.80;23.60
4578;DHT22;2301;47.354;8.528;2023-04-06T10:37:12;21.80;24.10
4578;DHT22;2301;47.354;8.528;2023-04-06T10:39:46;21.90;24.50
4578;DHT22;2301;47.354;8.528;2023-04-06T10:42:14;21.90;24.70
4578;DHT22;2301;47.354;8.528;2023-04-06T10:44:44;22.00;24.70
4578;DHT22;2301;47.354;8.528;2023-04-06T10:47:19;22.20;24.80
4578;DHT22;2301;47.354;8.528;2023-04-06T10:49:46;22.40;25.00
4578;DHT22;2301;47.354;8.528;2023-04-06T10:52:13;22.60;24.90
4578;DHT22;2301;47.354;8.528;2023-04-06T10:54:42;22.80;24.40
4578;DHT22;2301;47.354;8.528;2023-04-06T10:57:10;22.90;24.20
4578;DHT22;2301;47.354;8.528;2023-04-06T10:59:42;23.00;24.60
4578;DHT22;2301;47.354;8.528;2023-04-06T11:02:20;23.10;23.90
4578;DHT22;2301;47.354;8.528;2023-04-06T11:04:55;22.80;23.70
4578;DHT22;2301;47.354;8.528;2023-04-06T11:07:23;22.80;24.40
4578;DHT22;2301;47.354;8.528;2023-04-06T11:09:53;22.90;24.50
4578;DHT22;2301;47.354;8.528;2023-04-06T11:12:22;22.90;24.60
4578;DHT22;2301;47.354;8.528;2023-04-06T11:14:53;22.90;24.80
4578;DHT22;2301;47.354;8.528;2023-04-06T11:17:27;22.80;24.50
4578;DHT22;2301;47.354;8.528;2023-04-06T11:19:54;22.60;24.60
4578;DHT22;2301;47.354;8.528;2023-04-06T11:22:21;22.60;25.10
4578;DHT22;2301;47.354;8.528;2023-04-06T11:24:48;22.50;24.80
4578;DHT22;2301;47.354;8.528;2023-04-06T11:27:16;22.40;25.20
4578;DHT22;2301;47.354;8.528;2023-04-06T11:29:44;22.30;25.30
4578;DHT22;2301;47.354;8.528;2023-04-06T11:32:20;22.30;25.20
4578;DHT22;2301;47.354;8.528;2023-04-06T11:34:49;22.20;24.70
4578;DHT22;2301;47.354;8.528;2023-04-06T11:37:16;22.10;24.80
4578;DHT22;2301;47.354;8.528;2023-04-06T11:39:47;22.00;23.70
4578;DHT22;2301;47.354;8.528;2023-04-06T11:42:21;21.80;23.20
4578;DHT22;2301;47.354;8.528;2023-04-06T11:44:50;21.70;23.70
4578;DHT22;2301;47.354;8.528;2023-04-06T11:47:19;21.70;24.10
4578;DHT22;2301;47.354;8.528;2023-04-06T11:49:49;21.70;23.90
4578;DHT22;2301;47.354;8.528;2023-04-06T11:52:18;21.80;24.00
4578;DHT22;2301;47.354;8.528;2023-04-06T11:54:46;21.60;23.10
4578;DHT22;2301;47.354;8.528;2023-04-06T11:57:14;21.30;22.40
4578;DHT22;2301;47.354;8.528;2023-04-06T11:59:42;21.20;23.00
4578;DHT22;2301;47.354;8.528;2023-04-06T12:02:09;21.00;23.50
4578;DHT22;2301;47.354;8.528;2023-04-06T12:04:36;20.90;23.60
4578;DHT22;2301;47.354;8.528;2023-04-06T12:07:06;20.80;23.60
4578;DHT22;2301;47.354;8.528;2023-04-06T12:09:33;20.80;23.40
4578;DHT22;2301;47.354;8.528;2023-04-06T12:12:02;20.80;23.50
4578;DHT22;2301;47.354;8.528;2023-04-06T12:14:29;20.90;27.00
4578;DHT22;2301;47.354;8.528;2023-04-06T12:16:57;21.00;25.10
4578;DHT22;2301;47.354;8.528;2023-04-06T12:19:24;21.00;25.00
4578;DHT22;2301;47.354;8.528;2023-04-06T12:21:52;21.00;24.70
4578;DHT22;2301;47.354;8.528;2023-04-06T12:24:21;21.10;24.90
4578;DHT22;2301;47.354;8.528;2023-04-06T12:26:48;21.20;25.00
4578;DHT22;2301;47.354;8.528;2023-04-06T12:29:15;21.10;25.10
4578;DHT22;2301;47.354;8.528;2023-04-06T12:31:43;21.10;24.80
4578;DHT22;2301;47.354;8.528;2023-04-06T12:34:15;21.20;24.60
4578;DHT22;2301;47.354;8.528;2023-04-06T12:36:45;21.10;23.60
4578;DHT22;2301;47.354;8.528;2023-04-06T12:39:15;21.10;23.50
4578;DHT22;2301;47.354;8.528;2023-04-06T12:41:46;21.10;23.10
4578;DHT22;2301;47.354;8.528;2023-04-06T12:44:15;21.00;22.80
4578;DHT22;2301;47.354;8.528;2023-04-06T12:46:48;20.90;22.90
4578;DHT22;2301;47.354;8.528;2023-04-06T12:49:20;20.90;23.60
4578;DHT22;2301;47.354;8.528;2023-04-06T12:51:51;20.60;22.30
4578;DHT22;2301;47.354;8.528;2023-04-06T12:54:22;20.40;22.80
4578;DHT22;2301;47.354;8.528;2023-04-06T12:56:53;20.40;23.50
4578;DHT22;2301;47.354;8.528;2023-04-06T12:59:21;20.40;24.00
4578;DHT22;2301;47.354;8.528;2023-04-06T13:01:50;20.50;24.00
4578;DHT22;2301;47.354;8.528;2023-04-06T13:04:18;20.50;23.80
4578;DHT22;2301;47.354;8.528;2023-04-06T13:06:46;20.40;23.30
4578;DHT22;2301;47.354;8.528;2023-04-06T13:09:13;20.40;22.90
4578;DHT22;2301;47.354;8.528;2023-04-06T13:11:40;20.40;23.10
4578;DHT22;2301;47.354;8.528;2023-04-06T13:14:09;20.40;22.70
4578;DHT22;2301;47.354;8.528;2023-04-06T13:16:36;20.40;22.50
4578;DHT22;2301;47.354;8.528;2023-04-06T13:19:03;20.30;22.80
4578;DHT22;2301;47.354;8.528;2023-04-06T13:21:30;19.90;22.30
4578;DHT22;2301;47.354;8.528;2023-04-06T13:23:58;19.80;22.90
4578;DHT22;2301;47.354;8.528;2023-04-06T13:26:25;19.50;23.10
4578;DHT22;2301;47.354;8.528;2023-04-06T13:28:54;19.40;23.40
4578;DHT22;2301;47.354;8.528;2023-04-06T13:31:23;19.20;23.70
4578;DHT22;2301;47.354;8.528;2023-04-06T13:33:50;19.10;23.80
4578;DHT22;2301;47.354;8.528;2023-04-06T13:36:17;19.00;23.90
4578;DHT22;2301;47.354;8.528;2023-04-06T13:38:44;18.80;23.90
4578;DHT22;2301;47.354;8.528;2023-04-06T13:41:19;18.70;24.20
4578;DHT22;2301;47.354;8.528;2023-04-06T13:43:47;18.70;24.80
4578;DHT22;2301;47.354;8.528;2023-04-06T13:46:14;18.70;25.10
4578;DHT22;2301;47.354;8.528;2023-04-06T13:48:43;19.10;35.30
4578;DHT22;2301;47.354;8.528;2023-04-06T13:51:11;19.60;41.10
4578;DHT22;2301;47.354;8.528;2023-04-06T13:53:39;20.00;41.50
4578;DHT22;2301;47.354;8.528;2023-04-06T13:56:07;20.50;40.70
4578;DHT22;2301;47.354;8.528;2023-04-06T13:58:34;20.80;39.60
4578;DHT22;2301;47.354;8.528;2023-04-06T14:01:02;21.10;39.00
4578;DHT22;2301;47.354;8.528;2023-04-06T14:03:29;21.30;38.70
4578;DHT22;2301;47.354;8.528;2023-04-06T14:05:58;21.20;28.80
4578;DHT22;2301;47.354;8.528;2023-04-06T14:08:26;21.10;28.00
4578;DHT22;2301;47.354;8.528;2023-04-06T14:10:53;20.90;27.10
4578;DHT22;2301;47.354;8.528;2023-04-06T14:13:20;20.70;26.70
4578;DHT22;2301;47.354;8.528;2023-04-06T14:15:53;20.60;26.60
4578;DHT22;2301;47.354;8.528;2023-04-06T14:18:20;20.30;26.60
4578;DHT22;2301;47.354;8.528;2023-04-06T14:20:53;20.00;26.90
4578;DHT22;2301;47.354;8.528;2023-04-06T14:23:23;19.90;26.50
4578;DHT22;2301;47.354;8.528;2023-04-06T14:25:51;19.80;26.70
4578;DHT22;2301;47.354;8.528;2023-04-06T14:28:20;19.60;26.70
4578;DHT22;2301;47.354;8.528;2023-04-06T14:30:47;19.40;26.50
4578;DHT22;2301;47.354;8.528;2023-04-06T14:33:14;19.30;26.40
4578;DHT22;2301;47.354;8.528;2023-04-06T14:35:42;19.30;26.60
4578;DHT22;2301;47.354;8.528;2023-04-06T14:38:09;19.30;26.80
4578;DHT22;2301;47.354;8.528;2023-04-06T14:40:37;19.30;26.60
4578;DHT22;2301;47.354;8.528;2023-04-06T14:43:04;19.20;26.00
4578;DHT22;2301;47.354;8.528;2023-04-06T14:45:33;19.20;26.60
4578;DHT22;2301;47.354;8.528;2023-04-06T14:48:02;19.10;26.90
4578;DHT22;2301;47.354;8.528;2023-04-06T14:50:31;19.10;27.10
4578;DHT22;2301;47.354;8.528;2023-04-06T14:53:00;19.00;27.10
4578;DHT22;2301;47.354;8.528;2023-04-06T14:55:31;18.90;26.90
4578;DHT22;2301;47.354;8.528;2023-04-06T14:58:01;18.80;26.60
4578;DHT22;2301;47.354;8.528;2023-04-06T15:00:28;18.70;27.10
4578;DHT22;2301;47.354;8.528;2023-04-06T15:02:56;18.60;27.20
4578;DHT22;2301;47.354;8.528;2023-04-06T15:05:23;18.40;27.00
4578;DHT22;2301;47.354;8.528;2023-04-06T15:07:50;18.30;27.20
4578;DHT22;2301;47.354;8.528;2023-04-06T15:10:17;18.30;27.60
4578;DHT22;2301;47.354;8.528;2023-04-06T15:12:44;18.20;27.70
4578;DHT22;2301;47.354;8.528;2023-04-06T15:15:13;18.10;27.80
4578;DHT22;2301;47.354;8.528;2023-04-06T15:17:40;18.00;27.50
4578;DHT22;2301;47.354;8.528;2023-04-06T15:20:08;18.00;27.90
4578;DHT22;2301;47.354;8.528;2023-04-06T15:22:35;17.90;27.90
4578;DHT22;2301;47.354;8.528;2023-04-06T15:25:02;17.90;28.00
4578;DHT22;2301;47.354;8.528;2023-04-06T15:27:29;17.80;28.20
4578;DHT22;2301;47.354;8.528;2023-04-06T15:29:56;17.70;28.30
4578;DHT22;2301;47.354;8.528;2023-04-06T15:32:26;17.70;28.30
4578;DHT22;2301;47.354;8.528;2023-04-06T15:34:53;17.60;28.50
4578;DHT22;2301;47.354;8.528;2023-04-06T15:37:22;17.60;28.60
4578;DHT22;2301;47.354;8.528;2023-04-06T15:39:49;17.50;28.50
4578;DHT22;2301;47.354;8.528;2023-04-06T15:42:16;17.40;28.50
4578;DHT22;2301;47.354;8.528;2023-04-06T15:44:43;17.40;28.80
4578;DHT22;2301;47.354;8.528;2023-04-06T15:47:10;17.30;28.80
4578;DHT22;2301;47.354;8.528;2023-04-06T15:49:38;17.30;29.10
4578;DHT22;2301;47.354;8.528;2023-04-06T15:52:05;17.20;28.80
4578;DHT22;2301;47.354;8.528;2023-04-06T15:54:33;17.10;28.80
4578;DHT22;2301;47.354;8.528;2023-04-06T15:57:01;17.10;29.00
4578;DHT22;2301;47.354;8.528;2023-04-06T15:59:27;17.10;28.80
4578;DHT22;2301;47.354;8.528;2023-04-06T16:01:54;17.10;28.90
4578;DHT22;2301;47.354;8.528;2023-04-06T16:04:21;17.00;28.90
4578;DHT22;2301;47.354;8.528;2023-04-06T16:06:50;16.90;28.90
4578;DHT22;2301;47.354;8.528;2023-04-06T16:09:17;16.90;29.00
4578;DHT22;2301;47.354;8.528;2023-04-06T16:11:44;16.90;29.10
4578;DHT22;2301;47.354;8.528;2023-04-06T16:14:11;16.90;29.40
4578;DHT22;2301;47.354;8.528;2023-04-06T16:16:39;16.80;29.40
4578;DHT22;2301;47.354;8.528;2023-04-06T16:19:10;16.80;29.40
4578;DHT22;2301;47.354;8.528;2023-04-06T16:21:40;16.80;29.40
4578;DHT22;2301;47.354;8.528;2023-04-06T16:24:10;16.70;29.40
4578;DHT22;2301;47.354;8.528;2023-04-06T16:26:37;16.60;29.50
4578;DHT22;2301;47.354;8.528;2023-04-06T16:29:04;16.60;29.60
4578;DHT22;2301;47.354;8.528;2023-04-06T16:31:31;16.60;29.70
4578;DHT22;2301;47.354;8.528;2023-04-06T16:33:59;16.60;29.80
4578;DHT22;2301;47.354;8.528;2023-04-06T16:36:27;16.50;30.00
4578;DHT22;2301;47.354;8.528;2023-04-06T16:38:54;16.40;31.00
4578;DHT22;2301;47.354;8.528;2023-04-06T16:41:23;16.40;30.00
4578;DHT22;2301;47.354;8.528;2023-04-06T16:43:51;16.30;30.00
4578;DHT22;2301;47.354;8.528;2023-04-06T16:46:18;16.20;30.00
4578;DHT22;2301;47.354;8.528;2023-04-06T16:48:46;16.10;30.10
4578;DHT22;2301;47.354;8.528;2023-04-06T16:51:13;16.10;30.30
4578;DHT22;2301;47.354;8.528;2023-04-06T16:53:40;16.00;30.20
4578;DHT22;2301;47.354;8.528;2023-04-06T16:56:07;16.00;30.40
4578;DHT22;2301;47.354;8.528;2023-04-06T16:58:36;16.00;30.40
4578;DHT22;2301;47.354;8.528;2023-04-06T17:01:03;15.90;30.40
4578;DHT22;2301;47.354;8.528;2023-04-06T17:03:32;15.90;30.30
4578;DHT22;2301;47.354;8.528;2023-04-06T17:06:00;15.90;30.20
4578;DHT22;2301;47.354;8.528;2023-04-06T17:08:27;15.80;30.20
4578;DHT22;2301;47.354;8.528;2023-04-06T17:10:54;15.80;30.50
4578;DHT22;2301;47.354;8.528;2023-04-06T17:13:21;15.80;30.80
4578;DHT22;2301;47.354;8.528;2023-04-06T17:15:50;15.80;30.50
4578;DHT22;2301;47.354;8.528;2023-04-06T17:18:16;15.70;30.50
4578;DHT22;2301;47.354;8.528;2023-04-06T17:20:43;15.70;30.50
4578;DHT22;2301;47.354;8.528;2023-04-06T17:23:11;15.70;30.40
4578;DHT22;2301;47.354;8.528;2023-04-06T17:25:38;15.60;30.50
4578;DHT22;2301;47.354;8.528;2023-04-06T17:28:05;15.60;31.10
4578;DHT22;2301;47.354;8.528;2023-04-06T17:30:32;15.60;31.20
4578;DHT22;2301;47.354;8.528;2023-04-06T17:33:01;15.50;31.40
4578;DHT22;2301;47.354;8.528;2023-04-06T17:35:28;15.50;31.80
4578;DHT22;2301;47.354;8.528;2023-04-06T17:37:55;15.40;31.60
4578;DHT22;2301;47.354;8.528;2023-04-06T17:40:22;15.40;31.20
4578;DHT22;2301;47.354;8.528;2023-04-06T17:42:48;15.40;31.10
4578;DHT22;2301;47.354;8.528;2023-04-06T17:45:15;15.30;31.00
4578;DHT22;2301;47.354;8.528;2023-04-06T17:47:42;15.20;30.90
4578;DHT22;2301;47.354;8.528;2023-04-06T17:50:11;15.20;30.90
4578;DHT22;2301;47.354;8.528;2023-04-06T17:52:38;15.20;30.80
4578;DHT22;2301;47.354;8.528;2023-04-06T17:55:07;15.10;30.60
4578;DHT22;2301;47.354;8.528;2023-04-06T17:57:34;15.10;30.70
4578;DHT22;2301;47.354;8.528;2023-04-06T18:00:01;15.00;30.70
4578;DHT22;2301;47.354;8.528;2023-04-06T18:02:28;15.00;31.00
4578;DHT22;2301;47.354;8.528;2023-04-06T18:04:55;15.00;30.60
4578;DHT22;2301;47.354;8.528;2023-04-06T18:07:24;15.00;30.40